Time;durP1;ratioP1;P1;durP2;ratioP2;P2;SDS_P1;SDS_P2;PMS_P1;PMS_P2;Temp;Humidity;BMP_temperature;BMP_pressure;BME280_temperature;BME280_humidity;BME280_pressure;Samples;Min_cycle;Max_cycle;Signal;HPM_P1;HPM_P2
2023/12/21 07:52:21;;;;;;;0.08;0.08;;;;;;;;;;4916618;29;20080;-94
2023/12/21 07:54:47;;;;;;;0.10;0.10;;;;;;;;;;4916441;29;20033;-91
2023/12/21 07:57:14;;;;;;;0.10;0.10;;;;;;;;;;4918939;29;20035;-95
2023/12/21 07:59:40;;;;;;;0.00;0.00;;;;;;;;;;4934709;29;20063;-94
2023/12/21 08:02:06;;;;;;;0.00;0.00;;;;;;;;;;4930840;29;20036;-95
2023/12/21 08:04:32;;;;;;;0.10;0.10;;;;;;;;;;4932250;29;20044;-94
2023/12/21 08:06:58;;;;;;;0.00;0.00;;;;;;;;;;4918699;29;20020;-95
2023/12/21 08:09:24;;;;;;;0.10;0.10;;;;;;;;;;4932971;29;20012;-94
2023/12/21 08:11:50;;;;;;;0.00;0.00;;;;;;;;;;4914718;29;20017;-94
2023/12/21 08:14:16;;;;;;;0.10;0.10;;;;;;;;;;4929487;29;20027;-94
2023/12/21 08:16:42;;;;;;;0.00;0.00;;;;;;;;;;4937413;28;20013;-95
2023/12/21 08:19:09;;;;;;;0.08;0.08;;;;;;;;;;4936227;29;20035;-95
2023/12/21 08:21:34;;;;;;;0.03;0.03;;;;;;;;;;4940625;29;20040;-95
2023/12/21 08:24:01;;;;;;;0.00;0.00;;;;;;;;;;4934427;29;20037;-93
2023/12/21 08:26:27;;;;;;;0.00;0.00;;;;;;;;;;4917237;29;20076;-93
2023/12/21 08:28:53;;;;;;;0.00;0.00;;;;;;;;;;4929290;29;20021;-94
2023/12/21 08:31:23;;;;;;;0.00;0.00;;;;;;;;;;4938796;29;20056;-95
2023/12/21 08:33:49;;;;;;;0.10;0.10;;;;;;;;;;4933694;29;20017;-94
2023/12/21 08:36:15;;;;;;;0.00;0.00;;;;;;;;;;4932945;29;20137;-95
2023/12/21 08:38:41;;;;;;;0.00;0.00;;;;;;;;;;4924661;29;20135;-94
2023/12/21 08:41:07;;;;;;;0.00;0.00;;;;;;;;;;4919951;29;20669;-94
2023/12/21 08:43:35;;;;;;;0.00;0.00;;;;;;;;;;4932306;28;20427;-94
2023/12/21 08:46:01;;;;;;;0.00;0.00;;;;;;;;;;4930652;29;21110;-94
2023/12/21 08:48:27;;;;;;;0.10;0.10;;;;;;;;;;4933022;29;20017;-94
2023/12/21 08:50:53;;;;;;;0.00;0.00;;;;;;;;;;4929363;28;20028;-92
2023/12/21 08:53:19;;;;;;;0.00;0.00;;;;;;;;;;4920110;29;20044;-92
2023/12/21 08:55:45;;;;;;;0.00;0.00;;;;;;;;;;4917563;29;20025;-93
2023/12/21 08:58:11;;;;;;;0.00;0.00;;;;;;;;;;4919546;29;20016;-95
2023/12/21 09:00:37;;;;;;;0.00;0.00;;;;;;;;;;4917940;29;20021;-95
2023/12/21 09:03:03;;;;;;;0.00;0.00;;;;;;;;;;4920501;29;20044;-94
2023/12/21 09:05:29;;;;;;;0.00;0.00;;;;;;;;;;4938151;28;20044;-95
2023/12/21 09:07:55;;;;;;;0.00;0.00;;;;;;;;;;4935016;28;20043;-95
2023/12/21 09:10:21;;;;;;;0.00;0.00;;;;;;;;;;4918901;29;20032;-95
2023/12/21 09:12:47;;;;;;;0.00;0.00;;;;;;;;;;4920311;29;20016;-95
2023/12/21 09:15:13;;;;;;;0.08;0.08;;;;;;;;;;4936484;28;20009;-95
2023/12/21 09:17:40;;;;;;;0.00;0.00;;;;;;;;;;4934631;28;20036;-95
2023/12/21 09:20:08;;;;;;;0.05;0.05;;;;;;;;;;4919364;29;20017;-93
2023/12/21 09:22:34;;;;;;;0.10;0.10;;;;;;;;;;4936048;28;20056;-94
2023/12/21 09:25:02;;;;;;;0.00;0.00;;;;;;;;;;4934090;28;20146;-94
2023/12/21 09:27:28;;;;;;;0.00;0.00;;;;;;;;;;4919312;29;20351;-95
2023/12/21 09:29:54;;;;;;;0.00;0.00;;;;;;;;;;4938192;28;20025;-94
2023/12/21 09:32:20;;;;;;;0.00;0.00;;;;;;;;;;4935443;28;20029;-94
2023/12/21 09:34:47;;;;;;;0.00;0.00;;;;;;;;;;4930952;29;20024;-94
2023/12/21 09:37:14;;;;;;;0.00;0.00;;;;;;;;;;4920921;29;20016;-94
2023/12/21 09:39:40;;;;;;;0.00;0.00;;;;;;;;;;4933834;28;20029;-94
2023/12/21 09:42:06;;;;;;;0.00;0.00;;;;;;;;;;4921276;29;20045;-93
2023/12/21 09:44:33;;;;;;;0.00;0.00;;;;;;;;;;4921354;29;20047;-94
2023/12/21 14:11:00;;;;;;;0.00;0.00;;;;;;;;;;4892757;29;20459;-88
2023/12/21 14:13:25;;;;;;;0.00;0.00;;;10.30;99.90;;;;;;4908340;29;20040;-89
2023/12/21 14:15:52;;;;;;;0.00;0.00;;;;;;;;;;4886494;29;20076;-89
2023/12/21 14:18:17;;;;;;;0.00;0.00;;;10.20;99.90;;;;;;4909572;29;20611;-88
2023/12/21 14:20:47;;;;;;;0.00;0.00;;;10.10;99.90;;;;;;4896393;29;20100;-88
2023/12/21 14:23:18;;;;;;;0.00;0.00;;;10.30;99.90;;;;;;4894212;29;20083;-86
2023/12/21 14:25:45;;;;;;;0.00;0.00;;;10.40;99.90;;;;;;4898120;29;20043;-89
2023/12/21 14:28:11;;;;;;;0.00;0.00;;;;;;;;;;4910140;29;20038;-89
2023/12/21 14:30:37;;;;;;;0.10;0.10;;;;;;;;;;4912352;29;20036;-87
2023/12/21 14:33:04;;;;;;;0.00;0.00;;;;;;;;;;4909485;29;20028;-89
2023/12/21 14:35:29;;;;;;;0.00;0.00;;;;;;;;;;4912485;29;20036;-88
2023/12/21 14:37:55;;;;;;;0.00;0.00;;;10.10;99.90;;;;;;4912449;29;20571;-90
2023/12/21 14:40:20;;;;;;;0.00;0.00;;;10.10;99.90;;;;;;4896367;29;20029;-89
2023/12/21 14:42:46;;;;;;;0.10;0.10;;;;;;;;;;4896051;29;20032;-88
2023/12/21 14:45:12;;;;;;;0.00;0.00;;;;;;;;;;4910026;29;20128;-89
2023/12/21 14:47:41;;;;;;;0.00;0.00;;;;;;;;;;4915990;29;20084;-89
2023/12/21 14:50:07;;;;;;;0.10;0.10;;;9.10;99.90;;;;;;4909849;29;20028;-88
2023/12/21 14:52:33;;;;;;;0.10;0.10;;;;;;;;;;4909027;29;20084;-88
2023/12/21 14:54:59;;;;;;;0.10;0.10;;;;;;;;;;4893953;29;20386;-87
2023/12/21 14:57:25;;;;;;;0.10;0.10;;;;;;;;;;4915775;29;20033;-89
2023/12/21 14:59:52;;;;;;;0.10;0.10;;;;;;;;;;4911964;29;20051;-88
2023/12/21 15:02:18;;;;;;;0.10;0.10;;;;;;;;;;4900931;29;20426;-88
2023/12/21 15:04:44;;;;;;;0.10;0.10;;;;;;;;;;4913556;29;20039;-88
2023/12/21 15:07:10;;;;;;;0.10;0.10;;;;;;;;;;4910408;29;20474;-87
2023/12/21 15:09:36;;;;;;;0.10;0.10;;;6.50;99.90;;;;;;4896278;29;20032;-88
2023/12/21 15:12:03;;;;;;;0.10;0.10;;;;;;;;;;4895365;29;20065;-88
2023/12/21 15:14:29;;;;;;;0.10;0.10;;;;;;;;;;4913382;29;20039;-89
2023/12/21 15:16:57;;;;;;;0.08;0.08;;;;;;;;;;4914406;29;20036;-90
2023/12/21 15:19:23;;;;;;;0.10;0.10;;;;;;;;;;4899326;29;20040;-90
2023/12/21 15:21:49;;;;;;;0.10;0.10;;;;;;;;;;4916635;29;20378;-88
2023/12/21 15:24:14;;;;;;;0.10;0.10;;;6.10;99.90;;;;;;4908189;29;20041;-90
2023/12/21 15:26:40;;;;;;;0.10;0.10;;;;;;;;;;4908265;29;20028;-87
2023/12/21 15:29:08;;;;;;;0.10;0.10;;;;;;;;;;4910142;29;20462;-88
2023/12/21 15:31:35;;;;;;;0.10;0.10;;;;;;;;;;4913978;29;20231;-88
2023/12/21 15:34:00;;;;;;;0.10;0.10;;;;;;;;;;4911999;29;20032;-86
2023/12/21 15:36:26;;;;;;;0.10;0.10;;;;;;;;;;4909209;29;20391;-88
2023/12/21 15:38:52;;;;;;;0.10;0.10;;;;;;;;;;4914332;29;20036;-88
2023/12/21 15:41:19;;;;;;;0.10;0.10;;;;;;;;;;4894939;29;20037;-89
2023/12/21 15:43:45;;;;;;;0.10;0.10;;;;;;;;;;4914029;29;20048;-88
2023/12/21 15:46:10;;;;;;;0.10;0.10;;;6.00;99.90;;;;;;4898961;29;20494;-89
2023/12/21 15:54:10;;;;;;;0.10;0.10;;;;;;;;;;4900372;29;20039;-86
2023/12/21 15:56:36;;;;;;;0.10;0.10;;;5.30;99.90;;;;;;4891767;29;20029;-87
2023/12/21 15:59:02;;;;;;;0.10;0.10;;;;;;;;;;4888606;29;20035;-87
2023/12/21 16:01:28;;;;;;;0.10;0.10;;;;;;;;;;4902615;29;20071;-89
2023/12/21 16:03:54;;;;;;;0.10;0.10;;;;;;;;;;4907109;29;20028;-88
2023/12/21 16:06:20;;;;;;;0.08;0.08;;;;;;;;;;4906860;29;20037;-87
2023/12/21 16:08:46;;;;;;;0.10;0.10;;;;;;;;;;4897696;29;20096;-88
2023/12/21 16:11:12;;;;;;;0.00;0.00;;;;;;;;;;4908504;29;20096;-88
2023/12/21 16:13:38;;;;;;;0.00;0.00;;;;;;;;;;4901653;29;20546;-87
2023/12/21 16:16:04;;;;;;;0.10;0.10;;;4.90;99.90;;;;;;4905563;29;20040;-88
2023/12/21 16:18:30;;;;;;;0.10;0.10;;;;;;;;;;4896124;29;20092;-90
2023/12/21 16:20:56;;;;;;;0.00;0.00;;;;;;;;;;4910890;29;20040;-88
2023/12/21 16:23:22;;;;;;;0.00;0.00;;;;;;;;;;4910936;29;21831;-87
2023/12/21 16:25:48;;;;;;;0.10;0.10;;;;;;;;;;4909359;29;20029;-88
2023/12/21 16:28:14;;;;;;;0.00;0.00;;;5.20;99.90;;;;;;4905206;29;20036;-89
2023/12/21 16:30:39;;;;;;;0.10;0.10;;;;;;;;;;4893378;29;20383;-89
2023/12/21 16:33:05;;;;;;;0.10;0.10;;;5.40;99.90;;;;;;4890256;29;20033;-89
2023/12/21 16:35:31;;;;;;;0.10;0.10;;;;;;;;;;4898207;29;20466;-90
2023/12/21 16:37:57;;;;;;;0.10;0.10;;;;;;;;;;4897796;29;20032;-88
2023/12/21 16:40:23;;;;;;;0.10;0.10;;;;;;;;;;4902478;29;20490;-88
2023/12/21 16:42:49;;;;;;;0.10;0.10;;;;;;;;;;4895951;29;20052;-88
2023/12/21 16:45:15;;;;;;;0.10;0.10;;;;;;;;;;4915373;29;20096;-88
2023/12/21 16:47:41;;;;;;;0.10;0.10;;;;;;;;;;4914639;29;20326;-89
2023/12/21 16:50:07;;;;;;;0.05;0.05;;;5.50;99.90;;;;;;4916193;29;20068;-89
2023/12/21 16:52:33;;;;;;;0.10;0.10;;;;;;;;;;4896858;29;20043;-88
2023/12/21 16:55:01;;;;;;;0.10;0.10;;;;;;;;;;4899554;29;20028;-88
2023/12/21 16:57:27;;;;;;;0.10;0.10;;;;;;;;;;4893726;29;20505;-89
2023/12/21 16:59:53;;;;;;;0.03;0.03;;;;;;;;;;4898399;29;20060;-89
2023/12/21 17:02:19;;;;;;;0.10;0.10;;;;;;;;;;4896030;29;20423;-88
2023/12/21 17:04:44;;;;;;;0.10;0.10;;;;;;;;;;4896035;29;20115;-88
2023/12/21 17:07:10;;;;;;;0.10;0.10;;;;;;;;;;4896238;29;20036;-89
2023/12/21 17:09:36;;;;;;;0.00;0.00;;;;;;;;;;4911557;29;20043;-88
2023/12/21 17:12:02;;;;;;;0.00;0.00;;;5.80;99.90;;;;;;4911620;29;20028;-88
2023/12/21 17:14:28;;;;;;;0.10;0.10;;;;;;;;;;4897294;29;20064;-88
2023/12/21 17:16:54;;;;;;;0.10;0.10;;;;;;;;;;4898446;29;20036;-88
2023/12/21 17:19:20;;;;;;;0.00;0.00;;;;;;;;;;4912224;29;20458;-89
2023/12/21 17:21:46;;;;;;;0.10;0.10;;;;;;;;;;4912363;29;20111;-88
2023/12/21 17:24:12;;;;;;;0.00;0.00;;;;;;;;;;4915656;29;20120;-88
2023/12/21 17:26:39;;;;;;;0.10;0.10;;;;;;;;;;4911753;29;20119;-89
2023/12/21 17:29:04;;;;;;;0.10;0.10;;;;;;;;;;4911310;29;20497;-89
2023/12/21 17:31:30;;;;;;;0.10;0.10;;;;;;;;;;4902017;29;20032;-90
2023/12/21 17:33:56;;;;;;;0.05;0.05;;;;;;;;;;4907344;29;20041;-89
2023/12/21 17:36:22;;;;;;;0.10;0.10;;;;;;;;;;4912228;29;20032;-89
2023/12/21 17:38:48;;;;;;;0.10;0.10;;;;;;;;;;4912219;29;20714;-88
2023/12/21 17:41:14;;;;;;;0.10;0.10;;;;;;;;;;4919543;29;20039;-88
2023/12/21 17:43:44;;;;;;;0.10;0.10;;;;;;;;;;4898460;29;20470;-89
2023/12/21 17:46:17;;;;;;;0.10;0.10;;;5.80;99.90;;;;;;4911429;29;21701;-86
2023/12/21 17:48:43;;;;;;;0.10;0.10;;;;;;;;;;4897047;29;20059;-90
2023/12/21 17:51:10;;;;;;;0.10;0.10;;;;;;;;;;4898463;29;20049;-87
2023/12/21 17:53:36;;;;;;;0.00;0.00;;;;;;;;;;4911446;29;20550;-87
2023/12/21 17:56:02;;;;;;;0.10;0.10;;;;;;;;;;4913045;29;20044;-88
2023/12/21 17:58:28;;;;;;;0.10;0.10;;;;;;;;;;4917585;29;20188;-87
2023/12/21 18:00:53;;;;;;;0.10;0.10;;;5.40;99.90;;;;;;4928878;29;20036;-87
2023/12/21 18:03:22;;;;;;;0.10;0.10;;;;;;;;;;4894529;29;20474;-87
2023/12/21 18:05:54;;;;;;;0.00;0.00;;;;;;;;;;4892469;29;20545;-86
2023/12/21 18:08:20;;;;;;;0.08;0.08;;;;;;;;;;4900897;29;20481;-88
2023/12/21 18:10:46;;;;;;;0.10;0.10;;;;;;;;;;4917319;29;20297;-88
2023/12/21 18:13:12;;;;;;;0.10;0.10;;;;;;;;;;4901891;29;20037;-87
2023/12/21 18:15:37;;;;;;;0.05;0.05;;;4.90;99.90;;;;;;4911166;29;20039;-87
2023/12/21 18:18:03;;;;;;;0.10;0.10;;;4.70;99.90;;;;;;4900308;29;20402;-88
2023/12/21 18:20:29;;;;;;;0.10;0.10;;;;;;;;;;4900261;29;20401;-85
2023/12/21 18:22:55;;;;;;;0.10;0.10;;;;;;;;;;4914250;29;20051;-88
2023/12/21 18:25:22;;;;;;;0.10;0.10;;;4.80;99.90;;;;;;4912753;29;20518;-87
2023/12/21 18:27:49;;;;;;;0.10;0.10;;;;;;;;;;4904283;29;20115;-87
2023/12/21 18:30:15;;;;;;;0.00;0.00;;;;;;;;;;4907774;29;20032;-87
2023/12/21 18:32:41;;;;;;;0.10;0.10;;;;;;;;;;4910970;29;20047;-86
2023/12/21 18:35:07;;;;;;;0.00;0.00;;;;;;;;;;4911429;29;20498;-87
2023/12/21 18:37:33;;;;;;;0.10;0.10;;;;;;;;;;4898185;29;20037;-89
2023/12/21 18:39:59;;;;;;;0.03;0.03;;;;;;;;;;4908289;29;20032;-88
2023/12/21 18:42:26;;;;;;;0.08;0.08;;;;;;;;;;4896120;29;20064;-88
2023/12/21 18:44:52;;;;;;;0.00;0.00;;;;;;;;;;4913452;29;20070;-87
2023/12/21 18:47:17;;;;;;;0.00;0.00;;;4.90;99.90;;;;;;4911137;29;20056;-87
2023/12/21 18:49:43;;;;;;;0.10;0.10;;;;;;;;;;4898555;29;20183;-88
2023/12/21 18:52:09;;;;;;;0.10;0.10;;;;;;;;;;4909107;29;20100;-88
2023/12/21 18:54:35;;;;;;;0.00;0.00;;;;;;;;;;4900377;29;20555;-87
2023/12/21 18:57:02;;;;;;;0.10;0.10;;;;;;;;;;4910396;29;20431;-88
2023/12/21 18:59:28;;;;;;;0.10;0.10;;;;;;;;;;4910079;29;20707;-88
2023/12/21 19:01:54;;;;;;;0.10;0.10;;;;;;;;;;4894485;29;20036;-87
2023/12/21 19:04:20;;;;;;;0.10;0.10;;;;;;;;;;4910596;29;20066;-88
2023/12/21 19:06:46;;;;;;;0.08;0.08;;;;;;;;;;4916333;29;20040;-88
2023/12/21 19:09:12;;;;;;;0.10;0.10;;;;;;;;;;4909445;29;20036;-87
2023/12/21 19:11:38;;;;;;;0.10;0.10;;;;;;;;;;4895254;29;20033;-87
2023/12/21 19:14:04;;;;;;;0.10;0.10;;;;;;;;;;4893761;29;20056;-88
2023/12/21 19:16:30;;;;;;;0.00;0.00;;;;;;;;;;4909008;29;20032;-88
2023/12/21 19:18:56;;;;;;;0.10;0.10;;;;;;;;;;4901065;29;20083;-89
2023/12/21 19:21:23;;;;;;;0.10;0.10;;;;;;;;;;4902556;29;20048;-89
2023/12/21 19:23:49;;;;;;;0.10;0.10;;;;;;;;;;4894673;29;20063;-88
2023/12/21 19:26:16;;;;;;;0.10;0.10;;;;;;;;;;4892289;29;20068;-88
2023/12/21 19:28:42;;;;;;;0.00;0.00;;;;;;;;;;4910516;29;20474;-87
2023/12/21 19:31:08;;;;;;;0.00;0.00;;;;;;;;;;4905087;29;20092;-88
2023/12/21 19:33:34;;;;;;;0.00;0.00;;;5.20;99.90;;;;;;4895949;29;20052;-88
2023/12/21 19:36:04;;;;;;;0.10;0.10;;;;;;;;;;4889974;29;20545;-88
2023/12/21 19:38:30;;;;;;;0.10;0.10;;;;;;;;;;4906258;29;20033;-88
2023/12/21 19:40:56;;;;;;;0.10;0.10;;;;;;;;;;4895073;29;20043;-88
2023/12/21 19:43:22;;;;;;;0.10;0.10;;;;;;;;;;4899502;29;20467;-90
2023/12/21 19:45:48;;;;;;;0.10;0.10;;;;;;;;;;4904674;29;20077;-89
2023/12/21 19:48:14;;;;;;;0.10;0.10;;;;;;;;;;4905713;29;20382;-88
2023/12/21 19:50:41;;;;;;;0.10;0.10;;;;;;;;;;4913973;29;20032;-89
2023/12/21 19:53:08;;;;;;;0.10;0.10;;;5.30;99.90;;;;;;4909218;29;20397;-88
2023/12/21 19:55:35;;;;;;;0.10;0.10;;;;;;;;;;4890649;29;20417;-88
2023/12/21 19:58:01;;;;;;;0.10;0.10;;;;;;;;;;4907187;29;20028;-88
2023/12/21 20:00:27;;;;;;;0.03;0.03;;;;;;;;;;4906690;29;20037;-88
2023/12/21 20:02:53;;;;;;;0.10;0.10;;;;;;;;;;4900708;29;20048;-88
2023/12/21 20:05:19;;;;;;;0.00;0.00;;;;;;;;;;4907051;29;20029;-90
2023/12/21 20:07:45;;;;;;;0.10;0.10;;;;;;;;;;4910429;29;20059;-88
2023/12/21 20:10:11;;;;;;;0.10;0.10;;;;;;;;;;4910994;29;20868;-87
2023/12/21 20:12:36;;;;;;;0.10;0.10;;;5.20;99.90;;;;;;4910530;29;20028;-89
2023/12/21 20:15:02;;;;;;;0.10;0.10;;;5.20;99.90;;;;;;4896881;29;20114;-89
2023/12/21 20:17:28;;;;;;;0.05;0.05;;;5.50;99.90;;;;;;4893901;29;20150;-87
2023/12/21 20:19:53;;;;;;;0.10;0.10;;;;;;;;;;4897827;29;20037;-89
2023/12/21 20:22:19;;;;;;;0.10;0.10;;;;;;;;;;4909773;29;20064;-86
2023/12/21 20:24:45;;;;;;;0.10;0.10;;;;;;;;;;4895945;29;20088;-88
2023/12/21 20:27:11;;;;;;;0.00;0.00;;;;;;;;;;4918990;29;20413;-89
2023/12/21 20:29:37;;;;;;;0.10;0.10;;;;;;;;;;4913055;29;20029;-89
2023/12/21 20:32:03;;;;;;;0.10;0.10;;;5.40;99.90;;;;;;4894388;29;20593;-86
2023/12/21 20:34:29;;;;;;;0.08;0.08;;;;;;;;;;4902488;29;20394;-88
2023/12/21 20:36:55;;;;;;;0.10;0.10;;;;;;;;;;4915093;29;20032;-89
2023/12/21 20:39:21;;;;;;;0.10;0.10;;;;;;;;;;4916602;29;20037;-89
2023/12/21 20:41:49;;;;;;;0.10;0.10;;;;;;;;;;4915092;29;20044;-89
2023/12/21 20:44:15;;;;;;;0.10;0.10;;;;;;;;;;4898649;29;20036;-88
2023/12/21 20:46:41;;;;;;;0.10;0.10;;;;;;;;;;4898868;29;20060;-89
2023/12/21 20:49:07;;;;;;;0.10;0.10;;;;;;;;;;4913924;29;20601;-88
2023/12/21 20:51:32;;;;;;;0.00;0.00;;;5.40;99.90;;;;;;4897026;29;20402;-88
2023/12/21 20:53:58;;;;;;;0.10;0.10;;;;;;;;;;4896462;29;20306;-88
2023/12/21 20:56:24;;;;;;;0.10;0.10;;;;;;;;;;4915288;29;20542;-87
2023/12/21 20:58:50;;;;;;;0.10;0.10;;;;;;;;;;4899972;29;20036;-87
2023/12/21 21:01:16;;;;;;;0.10;0.10;;;5.50;99.90;;;;;;4907425;29;20477;-90
2023/12/21 21:03:42;;;;;;;0.00;0.00;;;;;;;;;;4894417;29;20039;-88
2023/12/21 21:06:07;;;;;;;0.10;0.10;;;;;;;;;;4894912;29;20123;-88
2023/12/21 21:08:33;;;;;;;0.10;0.10;;;;;;;;;;4895645;29;20037;-85
2023/12/21 21:10:59;;;;;;;0.10;0.10;;;;;;;;;;4911339;29;20489;-87
2023/12/21 21:13:26;;;;;;;0.10;0.10;;;;;;;;;;4913582;29;20063;-86
2023/12/21 21:15:52;;;;;;;0.10;0.10;;;;;;;;;;4912929;29;20032;-88
2023/12/21 21:18:18;;;;;;;0.10;0.10;;;;;;;;;;4910074;29;20035;-87
2023/12/21 21:20:45;;;;;;;0.10;0.10;;;;;;;;;;4912720;29;20036;-86
2023/12/21 21:23:11;;;;;;;0.10;0.10;;;;;;;;;;4907783;29;20088;-88
2023/12/21 21:25:36;;;;;;;0.10;0.10;;;;;;;;;;4893647;29;20087;-88
2023/12/21 21:28:02;;;;;;;0.10;0.10;;;5.50;99.90;;;;;;4910041;29;20038;-86
2023/12/21 21:30:28;;;;;;;0.10;0.10;;;;;;;;;;4897072;29;20498;-87
2023/12/21 21:32:54;;;;;;;0.10;0.10;;;;;;;;;;4912278;29;20056;-88
2023/12/21 21:35:20;;;;;;;0.10;0.10;;;;;;;;;;4913040;29;20027;-85
2023/12/21 21:37:46;;;;;;;0.10;0.10;;;;;;;;;;4911297;29;20165;-87
2023/12/21 21:40:13;;;;;;;0.00;0.00;;;;;;;;;;4911154;29;20036;-86
2023/12/21 21:42:39;;;;;;;0.10;0.10;;;;;;;;;;4913718;29;20553;-86
2023/12/21 21:45:04;;;;;;;0.10;0.10;;;5.60;99.90;;;;;;4896988;29;20149;-87
2023/12/21 21:47:31;;;;;;;0.10;0.10;;;;;;;;;;4904440;29;20036;-86
2023/12/21 21:49:56;;;;;;;0.10;0.10;;;;;;;;;;4911895;29;20107;-87
2023/12/21 21:52:22;;;;;;;0.10;0.10;;;;;;;;;;4916003;29;20470;-86
2023/12/21 21:54:48;;;;;;;0.10;0.10;;;;;;;;;;4896517;29;20033;-86
2023/12/21 21:57:14;;;;;;;0.10;0.10;;;;;;;;;;4897918;29;20068;-89
2023/12/21 21:59:40;;;;;;;0.10;0.10;;;;;;;;;;4908752;29;20604;-86
2023/12/21 22:02:06;;;;;;;0.10;0.10;;;;;;;;;;4915264;29;20033;-86
2023/12/21 22:04:33;;;;;;;0.00;0.00;;;;;;;;;;4912588;29;20031;-87
2023/12/21 22:06:58;;;;;;;0.05;0.05;;;;;;;;;;4921909;29;20042;-86
2023/12/21 22:09:24;;;;;;;0.10;0.10;;;;;;;;;;4914631;29;20460;-86
2023/12/21 22:11:50;;;;;;;0.10;0.10;;;;;;;;;;4897321;29;20028;-87
2023/12/21 22:14:18;;;;;;;0.10;0.10;;;;;;;;;;4897058;29;20032;-88
2023/12/21 22:16:44;;;;;;;0.10;0.10;;;;;;;;;;4896889;29;20397;-87
2023/12/21 22:19:10;;;;;;;0.00;0.00;;;5.40;99.90;;;;;;4903583;29;20176;-87
2023/12/21 22:21:36;;;;;;;0.10;0.10;;;;;;;;;;4897027;29;20505;-86
2023/12/21 22:24:01;;;;;;;0.10;0.10;;;;;;;;;;4900239;29;20029;-87
2023/12/21 22:26:28;;;;;;;0.10;0.10;;;;;;;;;;4914301;29;20482;-87
2023/12/21 22:28:55;;;;;;;0.00;0.00;;;;;;;;;;4896143;29;20066;-86
2023/12/21 22:31:22;;;;;;;0.10;0.10;;;5.20;99.90;;;;;;4896574;29;20056;-87
2023/12/21 22:33:48;;;;;;;0.10;0.10;;;;;;;;;;4894981;29;20029;-87
2023/12/21 22:36:14;;;;;;;0.10;0.10;;;;;;;;;;4913788;29;20512;-87
2023/12/21 22:38:40;;;;;;;0.00;0.00;;;;;;;;;;4914353;29;20037;-86
2023/12/21 22:41:06;;;;;;;0.10;0.10;;;;;;;;;;4898644;29;20032;-89
2023/12/21 22:43:32;;;;;;;0.10;0.10;;;;;;;;;;4911212;29;20064;-87
2023/12/21 22:45:58;;;;;;;0.00;0.00;;;;;;;;;;4910822;29;20493;-87
2023/12/21 22:48:25;;;;;;;0.10;0.10;;;;;;;;;;4900337;29;20095;-86
2023/12/21 22:50:51;;;;;;;0.10;0.10;;;;;;;;;;4894282;29;20024;-86
2023/12/21 22:53:17;;;;;;;0.10;0.10;;;;;;;;;;4905756;29;20033;-87
2023/12/21 22:55:43;;;;;;;0.00;0.00;;;5.30;99.90;;;;;;4912053;29;20039;-86
2023/12/21 22:58:09;;;;;;;0.10;0.10;;;;;;;;;;4897494;29;20375;-87
2023/12/21 23:00:35;;;;;;;0.05;0.05;;;;;;;;;;4911559;29;20546;-86
2023/12/21 23:03:01;;;;;;;0.03;0.03;;;;;;;;;;4895143;29;20033;-86
2023/12/21 23:05:27;;;;;;;0.10;0.10;;;;;;;;;;4914880;29;20132;-89
2023/12/21 23:07:53;;;;;;;0.10;0.10;;;;;;;;;;4914213;29;20043;-87
2023/12/21 23:10:19;;;;;;;0.10;0.10;;;;;;;;;;4901240;29;20080;-88
2023/12/21 23:12:45;;;;;;;0.10;0.10;;;;;;;;;;4901286;29;20024;-88
2023/12/21 23:15:11;;;;;;;0.00;0.00;;;;;;;;;;4909688;29;20035;-88
2023/12/21 23:17:37;;;;;;;0.10;0.10;;;;;;;;;;4913226;29;20044;-87
2023/12/21 23:20:03;;;;;;;0.10;0.10;;;5.50;99.90;;;;;;4895165;29;20032;-87
2023/12/21 23:22:32;;;;;;;0.05;0.05;;;;;;;;;;4892976;29;20127;-88
2023/12/21 23:24:58;;;;;;;0.10;0.10;;;;;;;;;;4915263;29;20033;-87
2023/12/21 23:27:24;;;;;;;0.10;0.10;;;;;;;;;;4897508;29;20050;-88
2023/12/21 23:29:51;;;;;;;0.00;0.00;;;;;;;;;;4910815;29;20061;-87
2023/12/21 23:32:20;;;;;;;0.10;0.10;;;5.60;99.90;;;;;;4914435;29;20028;-87
2023/12/21 23:34:46;;;;;;;0.10;0.10;;;;;;;;;;4898803;29;20032;-86
2023/12/21 23:37:12;;;;;;;0.10;0.10;;;;;;;;;;4894919;29;20037;-88
2023/12/21 23:39:38;;;;;;;0.10;0.10;;;;;;;;;;4911655;29;20032;-87
2023/12/21 23:42:04;;;;;;;0.03;0.03;;;;;;;;;;4912475;29;20040;-88
2023/12/21 23:44:30;;;;;;;0.08;0.08;;;;;;;;;;4911877;29;20409;-88
2023/12/21 23:46:56;;;;;;;0.10;0.10;;;;;;;;;;4897458;29;20132;-86
2023/12/21 23:49:22;;;;;;;0.00;0.00;;;;;;;;;;4898456;29;20551;-86
2023/12/21 23:51:48;;;;;;;0.10;0.10;;;;;;;;;;4914784;29;20091;-87
2023/12/21 23:54:14;;;;;;;0.10;0.10;;;;;;;;;;4894784;29;20096;-87
2023/12/21 23:56:39;;;;;;;0.10;0.10;;;;;;;;;;4900501;29;20032;-86
2023/12/21 23:59:05;;;;;;;0.03;0.03;;;;;;;;;;4895889;29;20029;-87
